Time;durP1;ratioP1;P1;durP2;ratioP2;P2;SDS_P1;SDS_P2;PMS_P1;PMS_P2;Temp;Humidity;BMP_temperature;BMP_pressure;BME280_temperature;BME280_humidity;BME280_pressure;Samples;Min_cycle;Max_cycle;Signal;HPM_P1;HPM_P2
2021/12/30 00:00:15;;;;;;;24.50;4.03;;;8.90;99.90;;;;;;6154801;23;20024;-84
2021/12/30 00:02:41;;;;;;;28.45;4.15;;;8.90;99.90;;;;;;6155270;23;20018;-84
2021/12/30 00:05:07;;;;;;;23.77;4.80;;;8.90;99.90;;;;;;6156656;23;20080;-85
2021/12/30 00:07:33;;;;;;;26.40;4.30;;;8.90;99.90;;;;;;6156585;23;20391;-88
2021/12/30 00:09:59;;;;;;;22.00;4.40;;;8.90;99.90;;;;;;6155701;23;20076;-85
2021/12/30 00:12:25;;;;;;;26.27;4.53;;;8.90;99.90;;;;;;6155101;23;20325;-87
2021/12/30 00:14:50;;;;;;;28.33;4.43;;;8.90;99.90;;;;;;6155151;23;20017;-87
2021/12/30 00:17:16;;;;;;;28.73;4.87;;;8.90;99.90;;;;;;6155584;23;20124;-85
2021/12/30 00:19:42;;;;;;;22.08;4.35;;;8.90;99.90;;;;;;6156614;23;20076;-85
2021/12/30 00:22:09;;;;;;;22.67;4.23;;;8.90;99.90;;;;;;6154792;23;20444;-85
2021/12/30 00:24:34;;;;;;;30.58;4.20;;;8.90;99.90;;;;;;6156678;23;20052;-86
2021/12/30 00:27:00;;;;;;;34.90;4.83;;;8.90;99.90;;;;;;6155165;23;20328;-84
2021/12/30 00:29:26;;;;;;;28.27;5.20;;;8.90;99.90;;;;;;6156425;23;20045;-88
2021/12/30 00:31:51;;;;;;;26.53;4.70;;;8.90;99.90;;;;;;6156409;23;20088;-85
2021/12/30 00:34:17;;;;;;;32.87;6.57;;;8.90;99.90;;;;;;6156243;23;20734;-82
2021/12/30 00:36:43;;;;;;;34.73;5.63;;;8.90;99.90;;;;;;6154720;23;20101;-85
2021/12/30 00:39:09;;;;;;;29.95;5.80;;;8.90;99.90;;;;;;6156257;23;20097;-83
2021/12/30 00:41:35;;;;;;;28.48;5.55;;;8.90;99.90;;;;;;6156577;23;20045;-83
2021/12/30 00:44:01;;;;;;;34.70;5.47;;;8.90;99.90;;;;;;6154230;23;20012;-83
2021/12/30 00:46:27;;;;;;;34.28;5.53;;;8.90;99.90;;;;;;6156293;23;20245;-85
2021/12/30 00:48:53;;;;;;;30.30;4.90;;;8.80;99.90;;;;;;6154816;23;20029;-84
2021/12/30 00:51:18;;;;;;;32.20;6.18;;;8.80;99.90;;;;;;6156181;23;20016;-89
2021/12/30 00:53:44;;;;;;;40.90;6.00;;;8.80;99.90;;;;;;6154635;23;20017;-85
2021/12/30 00:56:10;;;;;;;31.67;5.30;;;8.80;99.90;;;;;;6156425;23;20237;-86
2021/12/30 00:58:36;;;;;;;37.23;5.93;;;8.80;99.90;;;;;;6156103;23;20025;-83
2021/12/30 01:01:04;;;;;;;35.15;6.15;;;8.80;99.90;;;;;;6155965;23;20032;-83
2021/12/30 01:03:31;;;;;;;39.17;5.80;;;8.90;99.90;;;;;;6155970;23;20097;-83
2021/12/30 01:05:57;;;;;;;;;;;8.90;99.90;;;;;;6154831;23;20028;-84
2021/12/30 01:08:23;;;;;;;40.75;6.32;;;8.80;99.90;;;;;;6155952;23;20258;-86
2021/12/30 01:10:49;;;;;;;33.60;5.72;;;8.80;99.90;;;;;;6154354;23;20017;-85
2021/12/30 01:13:20;;;;;;;35.80;8.03;;;8.80;99.90;;;;;;6154215;23;20030;-86
2021/12/30 01:16:16;;;;;;;35.55;6.35;;;8.80;99.90;;;;;;6154413;23;20253;-85
2021/12/30 01:18:43;;;;;;;40.97;5.72;;;8.80;99.90;;;;;;6153407;23;20021;-84
2021/12/30 01:21:12;;;;;;;43.65;6.32;;;8.80;99.90;;;;;;6156069;23;20017;-87
2021/12/30 01:23:41;;;;;;;37.78;6.15;;;8.80;99.90;;;;;;6154263;23;20025;-86
2021/12/30 01:26:07;;;;;;;37.50;6.35;;;8.80;99.90;;;;;;6154350;23;20032;-87
2021/12/30 01:28:34;;;;;;;46.17;7.18;;;8.70;99.90;;;;;;6154228;23;20021;-88
2021/12/30 01:31:01;;;;;;;34.03;6.15;;;8.80;99.90;;;;;;6154336;23;20025;-86
2021/12/30 01:33:26;;;;;;;;;;;8.70;99.90;;;;;;6156295;23;20141;-85
2021/12/30 01:35:52;;;;;;;40.20;7.45;;;8.70;99.90;;;;;;6155742;23;20334;-86
2021/12/30 01:38:18;;;;;;;42.67;7.77;;;8.80;99.90;;;;;;6155472;23;20028;-86
2021/12/30 01:40:48;;;;;;;35.43;6.10;;;8.80;99.90;;;;;;6155607;23;20018;-86
2021/12/30 01:43:14;;;;;;;44.72;7.10;;;8.70;99.90;;;;;;6154024;23;20257;-87
2021/12/30 01:45:42;;;;;;;34.45;6.05;;;8.70;99.90;;;;;;6153879;23;20561;-85
2021/12/30 01:48:09;;;;;;;43.92;8.05;;;8.80;99.90;;;;;;6155852;23;20040;-90
2021/12/30 01:50:35;;;;;;;40.30;6.70;;;8.70;99.90;;;;;;6156482;23;20028;-86
2021/12/30 01:53:03;;;;;;;34.65;5.75;;;8.70;99.90;;;;;;6156065;23;20049;-86
2021/12/30 01:55:30;;;;;;;35.42;6.60;;;8.70;99.90;;;;;;6154723;23;20025;-85
2021/12/30 01:57:56;;;;;;;44.38;6.78;;;8.70;99.90;;;;;;6154272;23;20075;-84
2021/12/30 02:05:33;;;;;;;36.97;6.10;;;8.70;99.90;;;;;;6155604;23;20100;-84
2021/12/30 02:07:59;;;;;;;48.30;7.03;;;8.70;99.90;;;;;;6129759;23;20021;-82
2021/12/30 02:10:25;;;;;;;35.65;5.95;;;8.70;99.90;;;;;;6129484;23;20014;-84
2021/12/30 02:12:51;;;;;;;39.03;6.88;;;8.60;99.90;;;;;;6105049;23;20102;-85
2021/12/30 02:15:19;;;;;;;43.35;7.40;;;8.60;99.90;;;;;;6129399;23;20041;-86
2021/12/30 02:17:51;;;;;;;41.92;6.53;;;8.60;99.90;;;;;;6130279;23;20454;-87
2021/12/30 02:20:50;;;;;;;40.03;6.57;;;8.60;99.90;;;;;;6129723;23;20024;-83
2021/12/30 02:23:30;;;;;;;37.97;6.80;;;8.60;99.90;;;;;;6129518;23;20018;-85
2021/12/30 02:25:59;;;;;;;38.75;6.05;;;8.60;99.90;;;;;;6129697;23;20018;-84
2021/12/30 02:28:28;;;;;;;41.90;7.40;;;8.60;99.90;;;;;;6129635;23;20014;-84
2021/12/30 02:30:56;;;;;;;36.92;5.57;;;8.60;99.90;;;;;;6129873;23;20014;-86
2021/12/30 02:33:22;;;;;;;42.35;6.57;;;8.60;99.90;;;;;;6105088;23;20024;-87
2021/12/30 02:35:48;;;;;;;45.07;6.43;;;8.50;99.90;;;;;;6105136;23;20097;-86
2021/12/30 02:38:16;;;;;;;37.83;5.93;;;8.50;99.90;;;;;;6129675;23;20018;-90
2021/12/30 02:40:51;;;;;;;35.88;5.78;;;8.50;99.90;;;;;;6129142;23;20021;-89
2021/12/30 02:43:20;;;;;;;37.85;6.22;;;8.50;99.90;;;;;;6105189;23;20017;-90
2021/12/30 02:45:47;;;;;;;42.60;5.72;;;8.50;99.90;;;;;;6105136;23;20347;-85
2021/12/30 02:48:14;;;;;;;43.97;5.72;;;8.50;99.90;;;;;;6129357;23;20017;-86
2021/12/30 02:50:41;;;;;;;37.92;6.13;;;8.40;99.90;;;;;;6105112;23;20088;-84
2021/12/30 02:53:07;;;;;;;35.13;6.88;;;8.40;99.90;;;;;;6105422;23;20022;-90
2021/12/30 02:55:32;;;;;;;44.47;6.97;;;8.40;99.90;;;;;;6129169;23;20320;-85
2021/12/30 02:57:58;;;;;;;41.83;6.93;;;8.40;99.90;;;;;;6129410;23;20028;-84
2021/12/30 03:00:24;;;;;;;36.80;6.17;;;8.40;99.90;;;;;;6105055;23;20018;-84
2021/12/30 03:02:49;;;;;;;42.10;6.83;;;8.40;99.90;;;;;;6104722;23;20017;-85
2021/12/30 03:05:18;;;;;;;42.23;7.10;;;8.40;99.90;;;;;;6129354;23;20052;-88
2021/12/30 03:07:44;;;;;;;37.13;6.03;;;8.40;99.90;;;;;;6130506;23;20017;-85
2021/12/30 03:10:16;;;;;;;37.22;5.70;;;8.50;99.90;;;;;;6131229;23;20029;-86
2021/12/30 03:12:42;;;;;;;46.85;7.10;;;8.50;99.90;;;;;;6157047;23;20100;-84
2021/12/30 03:15:12;;;;;;;41.05;6.80;;;8.50;99.90;;;;;;6157547;23;20347;-85
2021/12/30 03:17:39;;;;;;;43.00;7.35;;;8.50;99.90;;;;;;6131128;23;20017;-93
2021/12/30 03:20:09;;;;;;;44.47;7.95;;;8.50;99.90;;;;;;6106709;23;20052;-86
2021/12/30 03:22:36;;;;;;;41.65;7.47;;;8.50;99.90;;;;;;6131114;23;20013;-85
2021/12/30 03:25:04;;;;;;;47.00;7.28;;;8.50;99.90;;;;;;6130933;23;20017;-84
2021/12/30 03:27:30;;;;;;;53.03;7.70;;;8.60;99.90;;;;;;6131005;23;20032;-85
2021/12/30 03:29:56;;;;;;;45.73;7.27;;;8.60;99.90;;;;;;6131061;23;20451;-84
2021/12/30 03:32:21;;;;;;;39.17;7.07;;;8.60;99.90;;;;;;6130942;23;20077;-88
2021/12/30 03:34:47;;;;;;;46.27;8.63;;;8.60;99.90;;;;;;6130967;23;20022;-86
2021/12/30 03:37:12;;;;;;;47.83;8.50;;;8.60;99.90;;;;;;6130508;23;20025;-86
2021/12/30 03:39:40;;;;;;;44.93;7.67;;;8.60;99.90;;;;;;6130877;23;20021;-85
2021/12/30 03:42:06;;;;;;;51.25;9.45;;;8.60;99.90;;;;;;6131178;23;20053;-90
2021/12/30 03:44:31;;;;;;;42.80;8.00;;;8.70;99.90;;;;;;6106269;23;20009;-85
2021/12/30 03:46:57;;;;;;;46.93;8.33;;;8.70;99.90;;;;;;6130969;23;20018;-84
2021/12/30 03:49:23;;;;;;;51.07;9.40;;;8.70;99.90;;;;;;6106086;23;20092;-84
2021/12/30 03:51:51;;;;;;;46.37;9.23;;;8.70;99.90;;;;;;6106160;23;20013;-85
2021/12/30 03:54:17;;;;;;;48.78;9.90;;;8.70;99.90;;;;;;6106295;23;20020;-87
2021/12/30 03:56:43;;;;;;;48.87;10.93;;;8.80;99.90;;;;;;6130636;23;20013;-86
2021/12/30 03:59:09;;;;;;;50.83;10.50;;;8.80;99.90;;;;;;6106389;23;20356;-86
2021/12/30 04:01:35;;;;;;;44.30;11.45;;;8.80;99.90;;;;;;6130314;23;20025;-91
2021/12/30 04:04:01;;;;;;;47.53;10.20;;;8.80;99.90;;;;;;6130297;23;20032;-89
2021/12/30 04:06:28;;;;;;;51.38;10.77;;;8.80;99.90;;;;;;6130786;23;20052;-84
2021/12/30 04:08:55;;;;;;;48.20;12.00;;;8.90;99.90;;;;;;6106033;23;20017;-84
2021/12/30 04:11:33;;;;;;;52.22;12.05;;;8.90;99.90;;;;;;6130447;23;20018;-85
2021/12/30 04:14:03;;;;;;;53.92;12.13;;;8.90;99.90;;;;;;6105983;23;20117;-85
2021/12/30 04:16:29;;;;;;;49.63;11.25;;;8.90;99.90;;;;;;6155169;23;20048;-86
2021/12/30 04:18:55;;;;;;;51.53;12.07;;;9.00;99.90;;;;;;6130416;23;20013;-85
2021/12/30 04:21:22;;;;;;;51.37;12.60;;;9.00;99.90;;;;;;6130670;23;20073;-88
2021/12/30 04:23:48;;;;;;;53.15;12.57;;;9.00;99.90;;;;;;6130257;23;20392;-84
2021/12/30 04:26:14;;;;;;;46.13;12.00;;;9.10;99.90;;;;;;6130333;23;20021;-87
2021/12/30 04:28:40;;;;;;;44.50;11.50;;;9.10;99.90;;;;;;6105918;23;20251;-83
2021/12/30 04:31:06;;;;;;;55.70;12.30;;;9.10;99.90;;;;;;6106091;23;20016;-84
2021/12/30 04:33:32;;;;;;;46.28;11.23;;;9.10;99.90;;;;;;6130379;23;20017;-92
2021/12/30 04:35:59;;;;;;;53.70;11.17;;;9.10;99.90;;;;;;6130405;23;20035;-87
2021/12/30 04:38:27;;;;;;;43.28;11.05;;;9.20;99.90;;;;;;6130279;23;20253;-90
2021/12/30 04:40:54;;;;;;;56.15;10.15;;;9.20;99.90;;;;;;6130121;23;20097;-90
2021/12/30 04:43:19;;;;;;;59.47;10.77;;;9.30;99.90;;;;;;6130321;23;20096;-85
2021/12/30 04:45:47;;;;;;;54.47;10.50;;;9.30;99.90;;;;;;6105577;23;20049;-85
2021/12/30 04:48:13;;;;;;;52.13;10.95;;;9.30;99.90;;;;;;6129953;23;20761;-89
2021/12/30 04:50:40;;;;;;;45.70;10.52;;;9.30;99.90;;;;;;6130219;23;20017;-84
2021/12/30 04:53:07;;;;;;;50.50;10.50;;;9.30;99.90;;;;;;6105554;23;20096;-85
2021/12/30 04:55:32;;;;;;;;;;;9.40;99.90;;;;;;6130437;23;20017;-85
2021/12/30 04:57:58;;;;;;;50.70;10.70;;;9.40;99.90;;;;;;6105573;23;19922;-84
2021/12/30 05:00:23;;;;;;;53.97;11.30;;;9.40;99.90;;;;;;6129866;23;20021;-84
2021/12/30 05:05:24;;;;;;;49.00;11.35;;;9.50;99.90;;;;;;6154488;23;20084;-85
2021/12/30 05:07:50;;;;;;;56.10;12.10;;;9.50;99.90;;;;;;6105728;23;20013;-88
2021/12/30 05:10:15;;;;;;;60.80;13.07;;;9.50;99.90;;;;;;6105561;23;20088;-92
2021/12/30 05:12:41;;;;;;;52.27;12.70;;;9.50;99.90;;;;;;6105407;23;20024;-86
2021/12/30 05:15:07;;;;;;;51.03;13.40;;;9.60;99.90;;;;;;6105496;23;20013;-88
2021/12/30 05:17:35;;;;;;;59.55;14.63;;;9.60;99.90;;;;;;6129468;23;20092;-85
2021/12/30 05:20:01;;;;;;;69.15;15.25;;;9.70;99.90;;;;;;6105482;23;20125;-84
2021/12/30 05:22:26;;;;;;;76.32;16.90;;;9.70;99.90;;;;;;6129913;23;20445;-85
2021/12/30 05:24:52;;;;;;;69.47;17.57;;;9.80;99.90;;;;;;6129786;23;20074;-91
2021/12/30 05:27:19;;;;;;;72.10;16.73;;;9.80;99.90;;;;;;6105416;23;20024;-89
2021/12/30 05:29:45;;;;;;;79.53;16.45;;;9.90;99.90;;;;;;6105456;23;20398;-85
2021/12/30 05:32:11;;;;;;;70.70;17.70;;;9.90;99.90;;;;;;6129884;23;20383;-84
2021/12/30 05:34:37;;;;;;;76.07;18.53;;;10.00;99.90;;;;;;6154755;23;20021;-90
2021/12/30 05:37:02;;;;;;;76.63;19.37;;;10.00;99.90;;;;;;6130049;23;20722;-86
2021/12/30 05:39:29;;;;;;;86.90;19.37;;;10.00;99.90;;;;;;6130109;23;20018;-86
2021/12/30 05:41:55;;;;;;;88.50;20.45;;;10.10;99.90;;;;;;6105654;23;20021;-84
2021/12/30 05:44:21;;;;;;;83.97;22.58;;;10.10;99.90;;;;;;6129919;23;20018;-86
2021/12/30 05:46:47;;;;;;;76.53;21.87;;;10.20;99.90;;;;;;6105391;23;20018;-85
2021/12/30 05:49:12;;;;;;;76.43;22.20;;;10.20;99.90;;;;;;6129953;23;20018;-88
2021/12/30 05:51:38;;;;;;;77.93;20.90;;;10.30;99.90;;;;;;6105578;23;20443;-86
2021/12/30 05:54:04;;;;;;;75.87;22.03;;;10.30;99.90;;;;;;6129691;23;20039;-91
2021/12/30 05:56:29;;;;;;;66.50;21.73;;;10.40;99.90;;;;;;6129442;23;20044;-85
2021/12/30 05:58:55;;;;;;;73.57;21.60;;;10.40;99.90;;;;;;6105107;23;20093;-85
2021/12/30 06:01:21;;;;;;;70.87;21.80;;;10.40;99.90;;;;;;6105419;23;20022;-87
2021/12/30 06:03:46;;;;;;;58.60;19.70;;;10.50;99.90;;;;;;6105023;23;20455;-84
2021/12/30 06:06:12;;;;;;;50.97;18.57;;;10.50;99.90;;;;;;6129871;23;20033;-85
2021/12/30 06:08:37;;;;;;;58.23;17.07;;;10.50;99.90;;;;;;6129626;23;20014;-87
2021/12/30 06:11:03;;;;;;;46.57;15.77;;;10.50;99.90;;;;;;6129864;23;20020;-90
2021/12/30 06:13:29;;;;;;;43.07;16.67;;;10.50;99.90;;;;;;6105416;23;20575;-88
2021/12/30 06:15:54;;;;;;;45.03;15.10;;;10.60;99.90;;;;;;6105151;23;20017;-86
2021/12/30 06:18:20;;;;;;;32.00;13.13;;;10.60;99.90;;;;;;6105171;23;20026;-86
2021/12/30 06:20:46;;;;;;;39.60;14.30;;;10.60;99.90;;;;;;6129641;23;20021;-89
2021/12/30 06:23:11;;;;;;;35.97;13.40;;;10.60;99.90;;;;;;6129682;23;20010;-84
2021/12/30 06:25:37;;;;;;;37.37;13.87;;;10.60;99.90;;;;;;6129821;23;20017;-88
2021/12/30 06:28:03;;;;;;;31.35;13.27;;;10.60;99.90;;;;;;6129347;23;20013;-86
2021/12/30 06:30:29;;;;;;;31.83;12.50;;;10.60;99.90;;;;;;6129618;23;20410;-87
2021/12/30 06:32:55;;;;;;;33.33;12.90;;;10.60;99.90;;;;;;6105373;23;20018;-88
2021/12/30 06:35:21;;;;;;;31.73;12.10;;;10.60;99.90;;;;;;6129517;23;20056;-85
2021/12/30 06:37:46;;;;;;;34.57;14.00;;;10.70;99.90;;;;;;6105183;23;20431;-88
2021/12/30 06:40:13;;;;;;;40.80;14.87;;;10.70;99.90;;;;;;6104998;23;20387;-94
2021/12/30 06:42:41;;;;;;;42.25;14.95;;;10.70;99.90;;;;;;6106252;23;20014;-89
2021/12/30 06:45:07;;;;;;;43.90;14.93;;;10.70;99.90;;;;;;6131601;23;20017;-88
2021/12/30 06:47:33;;;;;;;44.72;16.35;;;10.70;99.90;;;;;;6131525;23;20028;-87
2021/12/30 06:50:02;;;;;;;45.97;17.33;;;10.80;99.90;;;;;;6157328;23;20409;-90
2021/12/30 06:52:28;;;;;;;54.90;17.10;;;10.80;99.90;;;;;;6157404;23;20268;-92
2021/12/30 06:54:54;;;;;;;48.17;16.08;;;10.80;99.90;;;;;;6106774;23;20028;-88
2021/12/30 06:57:20;;;;;;;47.60;15.33;;;10.80;99.90;;;;;;6131463;23;20049;-87
2021/12/30 06:59:46;;;;;;;48.63;16.03;;;10.80;99.90;;;;;;6131373;23;20073;-89
2021/12/30 07:02:13;;;;;;;52.03;15.45;;;10.80;99.90;;;;;;6131294;23;20251;-87
2021/12/30 07:04:39;;;;;;;52.10;15.73;;;10.80;99.90;;;;;;6131230;23;20072;-86
2021/12/30 07:07:04;;;;;;;49.50;15.65;;;10.80;99.90;;;;;;6157122;23;20017;-84
2021/12/30 07:09:30;;;;;;;44.13;14.87;;;10.80;99.90;;;;;;6130974;23;20447;-85
2021/12/30 07:11:56;;;;;;;50.60;15.10;;;10.80;99.90;;;;;;6130900;23;20076;-88
2021/12/30 07:14:23;;;;;;;45.63;15.63;;;10.80;99.90;;;;;;6131152;23;20096;-88
2021/12/30 07:16:49;;;;;;;46.47;14.75;;;10.90;99.90;;;;;;6157408;23;20096;-86
2021/12/30 07:19:15;;;;;;;46.63;14.55;;;10.90;99.90;;;;;;6130885;23;20018;-87
2021/12/30 07:21:42;;;;;;;36.60;13.05;;;10.90;99.90;;;;;;6131218;23;20025;-87
2021/12/30 07:24:08;;;;;;;36.33;13.10;;;10.90;99.90;;;;;;6131491;23;20041;-85
2021/12/30 07:26:34;;;;;;;35.10;11.85;;;11.00;99.90;;;;;;6131232;23;20470;-85
2021/12/30 07:29:00;;;;;;;38.80;13.18;;;10.90;99.90;;;;;;6155785;23;20294;-85
2021/12/30 07:31:26;;;;;;;33.67;11.10;;;11.00;99.90;;;;;;6156816;23;20474;-84
2021/12/30 07:33:52;;;;;;;31.15;10.95;;;11.00;99.90;;;;;;6130797;23;20052;-87
2021/12/30 07:36:18;;;;;;;32.37;10.87;;;11.00;99.90;;;;;;6156840;23;20076;-90
2021/12/30 07:38:43;;;;;;;29.30;10.70;;;11.00;99.90;;;;;;6130853;23;20028;-90
2021/12/30 07:41:09;;;;;;;30.57;10.50;;;11.10;99.90;;;;;;6130513;23;20052;-88
2021/12/30 07:43:35;;;;;;;26.53;9.53;;;11.00;99.90;;;;;;6130810;23;20245;-89
2021/12/30 07:46:01;;;;;;;25.80;9.67;;;11.10;99.90;;;;;;6131036;23;20025;-90
2021/12/30 07:48:42;;;;;;;27.73;9.03;;;11.10;99.90;;;;;;6106989;23;20025;-91
2021/12/30 07:51:07;;;;;;;24.58;9.27;;;11.10;99.90;;;;;;6130588;23;20053;-88
2021/12/30 07:53:33;;;;;;;26.40;9.00;;;11.10;99.90;;;;;;6105851;23;20021;-89
2021/12/30 07:56:01;;;;;;;24.20;8.50;;;11.10;99.90;;;;;;6130875;23;20179;-87
2021/12/30 07:58:28;;;;;;;26.25;9.20;;;11.10;99.90;;;;;;6106215;23;20055;-93
2021/12/30 08:00:54;;;;;;;21.88;8.65;;;11.10;99.90;;;;;;6105940;23;20022;-87
2021/12/30 08:03:24;;;;;;;22.27;8.50;;;11.10;99.90;;;;;;6129256;23;20014;-87
2021/12/30 08:09:49;;;;;;;19.80;7.93;;;11.20;99.90;;;;;;6127367;23;20020;-88
2021/12/30 08:12:15;;;;;;;15.57;6.90;;;11.20;99.90;;;;;;6101612;23;20013;-88
2021/12/30 08:14:41;;;;;;;16.17;7.43;;;11.20;99.90;;;;;;6125825;23;20376;-88
2021/12/30 08:17:07;;;;;;;14.73;8.23;;;11.20;99.90;;;;;;6127279;23;20097;-87
2021/12/30 08:19:39;;;;;;;12.73;7.20;;;11.20;99.90;;;;;;6101308;23;20269;-87
2021/12/30 08:22:05;;;;;;;12.27;7.35;;;11.20;99.90;;;;;;6101230;23;20336;-89
2021/12/30 08:24:30;;;;;;;11.57;7.00;;;11.20;99.90;;;;;;6125381;23;20045;-87
2021/12/30 08:26:59;;;;;;;12.55;6.55;;;11.30;99.90;;;;;;6125687;23;20025;-85
2021/12/30 08:29:25;;;;;;;9.05;5.75;;;11.30;99.90;;;;;;6101488;23;20014;-88
2021/12/30 08:31:51;;;;;;;;;;;11.30;99.90;;;;;;6125956;23;20021;-87
2021/12/30 08:34:29;;;;;;;12.82;8.50;;;11.30;99.90;;;;;;6124989;23;20239;-86
2021/12/30 08:37:26;;;;;;;10.02;6.30;;;11.30;99.90;;;;;;6100154;23;20018;-87
2021/12/30 08:40:03;;;;;;;9.77;5.07;;;11.30;99.90;;;;;;6101208;23;20455;-88
2021/12/30 08:42:30;;;;;;;9.30;4.90;;;11.30;99.90;;;;;;6101068;23;20053;-90
2021/12/30 08:44:58;;;;;;;7.60;4.15;;;11.40;99.90;;;;;;6101565;23;20021;-88
2021/12/30 08:47:25;;;;;;;6.55;3.75;;;11.40;99.90;;;;;;6125943;23;20092;-91
2021/12/30 08:49:53;;;;;;;8.32;4.40;;;11.40;99.90;;;;;;6101554;23;20081;-91
2021/12/30 08:52:21;;;;;;;9.35;5.32;;;11.40;99.90;;;;;;6100968;23;20028;-90
2021/12/30 08:54:47;;;;;;;7.55;4.70;;;11.40;99.90;;;;;;6101239;23;20025;-88
2021/12/30 08:57:14;;;;;;;9.60;5.05;;;11.40;99.90;;;;;;6101529;23;20018;-88
2021/12/30 08:59:40;;;;;;;12.05;6.05;;;11.50;99.90;;;;;;6101462;23;20017;-92
2021/12/30 09:02:07;;;;;;;14.77;5.95;;;11.50;99.90;;;;;;6101307;23;20025;-90
2021/12/30 09:04:33;;;;;;;14.90;7.45;;;11.60;99.90;;;;;;6100948;23;20010;-88
2021/12/30 09:07:00;;;;;;;13.65;7.40;;;11.50;99.90;;;;;;6101177;23;20510;-88
2021/12/30 09:09:26;;;;;;;13.85;8.32;;;11.50;99.90;;;;;;6101589;23;20467;-89
2021/12/30 09:11:52;;;;;;;14.45;7.80;;;11.60;99.90;;;;;;6101481;23;20389;-88
2021/12/30 09:14:18;;;;;;;15.43;7.20;;;11.60;99.90;;;;;;6101486;23;20018;-88
2021/12/30 09:16:44;;;;;;;13.30;7.18;;;11.60;99.90;;;;;;6101462;23;20098;-88
2021/12/30 09:19:11;;;;;;;14.25;6.22;;;11.60;99.90;;;;;;6101290;23;20022;-88
2021/12/30 09:21:40;;;;;;;14.30;6.43;;;11.60;99.90;;;;;;6101080;23;20022;-88
2021/12/30 09:24:08;;;;;;;13.45;7.60;;;11.60;99.90;;;;;;6101194;23;20018;-90
2021/12/30 09:26:34;;;;;;;16.52;6.45;;;11.60;99.90;;;;;;6101262;23;20474;-90
2021/12/30 09:29:00;;;;;;;16.65;6.57;;;11.60;99.90;;;;;;6101382;23;20049;-89
2021/12/30 09:31:28;;;;;;;17.00;6.22;;;11.60;99.90;;;;;;6101628;23;20026;-88
2021/12/30 09:33:55;;;;;;;14.68;7.07;;;11.60;99.90;;;;;;6125745;23;20069;-92
2021/12/30 09:36:22;;;;;;;20.35;7.20;;;11.60;99.90;;;;;;6101317;23;20021;-90
2021/12/30 09:38:48;;;;;;;15.63;6.70;;;11.60;99.90;;;;;;6101384;23;20101;-90
2021/12/30 09:41:14;;;;;;;14.82;7.10;;;11.60;99.90;;;;;;6101314;23;20028;-91
2021/12/30 09:43:40;;;;;;;16.92;6.40;;;11.60;99.90;;;;;;6101464;23;20014;-89
2021/12/30 09:46:06;;;;;;;13.40;6.45;;;11.60;99.90;;;;;;6102089;23;20100;-89
2021/12/30 09:48:32;;;;;;;22.15;8.18;;;11.60;99.90;;;;;;6101136;23;20097;-91
2021/12/30 09:50:58;;;;;;;20.07;7.10;;;11.70;99.90;;;;;;6130796;23;20022;-86
2021/12/30 09:53:26;;;;;;;21.45;7.70;;;11.70;99.90;;;;;;6132286;23;20018;-95
2021/12/30 09:55:55;;;;;;;20.35;7.57;;;11.70;99.90;;;;;;6139855;23;20029;-89
2021/12/30 09:58:21;;;;;;;19.42;8.18;;;11.70;99.90;;;;;;6142463;23;20022;-90
2021/12/30 10:00:47;;;;;;;17.97;7.90;;;11.70;99.90;;;;;;6138266;23;20086;-93
2021/12/30 10:05:48;;;;;;;24.65;9.38;;;11.70;99.90;;;;;;6206876;23;20024;-94
2021/12/30 10:08:36;;;;;;;18.30;8.27;;;11.70;99.90;;;;;;6199358;23;20028;-89
2021/12/30 10:11:18;;;;;;;21.95;8.13;;;11.70;99.90;;;;;;6194739;23;20027;-93
2021/12/30 10:13:56;;;;;;;23.20;8.77;;;11.70;99.90;;;;;;6168028;23;20047;-86
2021/12/30 10:16:27;;;;;;;23.92;8.68;;;11.80;99.90;;;;;;6197994;23;20082;-88
2021/12/30 10:18:55;;;;;;;25.05;8.93;;;11.80;99.90;;;;;;6223694;23;20070;-87
2021/12/30 10:21:25;;;;;;;19.70;8.63;;;11.70;99.90;;;;;;6173887;23;20039;-88
2021/12/30 10:23:55;;;;;;;25.63;9.02;;;11.80;99.90;;;;;;6200821;23;20074;-88
2021/12/30 10:26:22;;;;;;;23.85;8.52;;;11.80;99.90;;;;;;6201682;23;20017;-89
2021/12/30 10:29:04;;;;;;;25.02;6.50;;;11.80;99.90;;;;;;6222712;23;20394;-85
2021/12/30 10:31:32;;;;;;;25.98;7.22;;;11.80;99.90;;;;;;6197267;23;20017;-89
2021/12/30 10:34:07;;;;;;;25.40;6.63;;;11.80;99.90;;;;;;6198057;23;20019;-88
2021/12/30 10:36:44;;;;;;;20.08;6.10;;;11.90;99.90;;;;;;6168905;23;20071;-90
2021/12/30 10:39:20;;;;;;;;;;;11.90;99.90;;;;;;6193679;23;20017;-90
2021/12/30 10:41:49;;;;;;;21.48;5.60;;;11.90;99.90;;;;;;6194229;23;19991;-86
2021/12/30 10:44:15;;;;;;;23.17;5.90;;;11.90;99.90;;;;;;6193445;23;20063;-92
2021/12/30 10:46:42;;;;;;;21.30;5.63;;;11.90;99.90;;;;;;6193957;23;20021;-88
2021/12/30 10:49:19;;;;;;;19.05;5.65;;;11.90;99.90;;;;;;6194024;23;20013;-90
2021/12/30 10:51:49;;;;;;;22.50;5.97;;;11.90;99.90;;;;;;6232836;23;20020;-88
2021/12/30 10:54:18;;;;;;;20.67;6.93;;;11.90;99.90;;;;;;6178444;23;20017;-86
2021/12/30 10:57:06;;;;;;;19.77;5.88;;;11.90;99.90;;;;;;6196527;23;20031;-90
2021/12/30 10:59:51;;;;;;;19.30;6.07;;;12.00;99.90;;;;;;6232367;23;20341;-94
2021/12/30 11:05:01;;;;;;;16.92;5.88;;;11.90;99.90;;;;;;6226540;23;20516;-93
2021/12/30 11:07:43;;;;;;;24.77;6.43;;;11.90;99.90;;;;;;6230533;23;20036;-90
2021/12/30 11:10:10;;;;;;;22.67;6.18;;;11.90;99.90;;;;;;6173637;23;20076;-86
2021/12/30 11:12:44;;;;;;;22.50;6.38;;;11.90;99.90;;;;;;6193408;23;20013;-90
2021/12/30 11:15:18;;;;;;;24.15;6.85;;;11.90;99.90;;;;;;6193721;23;20031;-93
2021/12/30 11:17:44;;;;;;;31.23;6.53;;;11.90;99.90;;;;;;6167378;23;20342;-92
2021/12/30 11:20:11;;;;;;;24.63;5.47;;;11.90;99.90;;;;;;6171980;23;20043;-91
2021/12/30 11:22:39;;;;;;;31.30;5.97;;;11.90;99.90;;;;;;6198095;23;20023;-93
2021/12/30 11:25:13;;;;;;;35.85;6.22;;;12.00;99.90;;;;;;6225095;23;20024;-93
2021/12/30 11:27:40;;;;;;;37.92;6.32;;;12.00;99.90;;;;;;6197343;23;20023;-93
2021/12/30 11:30:12;;;;;;;35.38;6.35;;;12.00;99.90;;;;;;6177619;23;20043;-94
2021/12/30 11:32:39;;;;;;;30.70;6.68;;;11.90;99.90;;;;;;6159413;23;20029;-92
2021/12/30 11:35:07;;;;;;;38.75;7.53;;;12.00;99.90;;;;;;6135512;23;20029;-85
2021/12/30 11:37:33;;;;;;;42.47;7.75;;;12.00;99.90;;;;;;6131941;23;20525;-87
2021/12/30 11:40:06;;;;;;;37.80;6.90;;;12.00;99.90;;;;;;6133174;23;20482;-89
2021/12/30 11:42:37;;;;;;;33.67;6.63;;;12.00;99.90;;;;;;6158248;23;20068;-86
2021/12/30 11:45:22;;;;;;;36.20;6.90;;;12.00;99.90;;;;;;6134587;23;20018;-87
2021/12/30 11:47:48;;;;;;;32.15;6.95;;;12.00;99.90;;;;;;6156249;23;20104;-86
2021/12/30 11:50:26;;;;;;;30.65;7.82;;;12.00;99.90;;;;;;6131777;23;20014;-85
2021/12/30 11:53:03;;;;;;;34.22;7.78;;;12.00;99.90;;;;;;6181799;23;20507;-85
2021/12/30 11:56:02;;;;;;;43.47;8.85;;;12.10;99.90;;;;;;6155691;23;20040;-88
2021/12/30 11:58:27;;;;;;;32.92;7.93;;;12.00;99.90;;;;;;6131716;23;20104;-87
2021/12/30 12:01:27;;;;;;;40.63;8.80;;;12.00;99.90;;;;;;6131112;23;20371;-88
2021/12/30 12:03:53;;;;;;;45.55;8.90;;;12.10;99.90;;;;;;6127838;23;20021;-88
2021/12/30 12:06:25;;;;;;;46.37;9.27;;;12.00;99.90;;;;;;6130343;23;20056;-87
2021/12/30 12:09:13;;;;;;;32.17;8.05;;;12.00;99.90;;;;;;6178378;23;20044;-87
2021/12/30 12:11:42;;;;;;;50.10;9.00;;;12.00;99.90;;;;;;6155229;23;20017;-88
2021/12/30 12:14:44;;;;;;;42.20;8.55;;;12.00;99.90;;;;;;6131522;23;20013;-89
2021/12/30 12:17:32;;;;;;;46.20;10.07;;;12.00;99.90;;;;;;6108936;23;20017;-89
2021/12/30 12:19:58;;;;;;;;;;;12.00;99.90;;;;;;6131012;23;20049;-87
2021/12/30 12:22:26;;;;;;;45.60;8.75;;;12.00;99.90;;;;;;6130722;23;19917;-88
2021/12/30 12:25:04;;;;;;;36.53;7.28;;;12.00;99.90;;;;;;6130439;23;20024;-87
2021/12/30 12:27:32;;;;;;;43.30;7.63;;;12.00;99.90;;;;;;6180256;23;20039;-91
2021/12/30 12:30:00;;;;;;;35.95;6.65;;;12.00;99.90;;;;;;6130534;23;20014;-88
2021/12/30 12:32:34;;;;;;;38.35;7.20;;;12.00;99.90;;;;;;6155136;23;20021;-87
2021/12/30 12:35:20;;;;;;;41.60;7.07;;;12.10;99.90;;;;;;6130334;23;20044;-86
2021/12/30 12:37:49;;;;;;;35.58;7.10;;;12.00;99.90;;;;;;6110403;23;20102;-87
2021/12/30 12:40:15;;;;;;;33.47;5.85;;;12.00;99.90;;;;;;6129427;23;20021;-86
2021/12/30 12:42:50;;;;;;;30.30;6.73;;;12.10;99.90;;;;;;6180335;23;20023;-88
2021/12/30 12:45:33;;;;;;;33.75;6.28;;;12.10;99.90;;;;;;6130679;23;20018;-86
2021/12/30 12:48:17;;;;;;;35.42;6.00;;;12.10;99.90;;;;;;6154967;23;20093;-88
2021/12/30 12:51:23;;;;;;;40.72;6.90;;;12.10;99.90;;;;;;6130791;23;20447;-89
2021/12/30 12:53:56;;;;;;;41.42;7.32;;;12.10;99.90;;;;;;6177927;23;20080;-86
2021/12/30 12:56:28;;;;;;;37.90;7.22;;;12.10;99.90;;;;;;6155250;23;20096;-89
2021/12/30 12:58:55;;;;;;;35.30;6.82;;;12.10;99.90;;;;;;6130439;23;20115;-87
2021/12/30 13:01:25;;;;;;;34.00;6.85;;;12.10;99.90;;;;;;6154695;23;20017;-88
2021/12/30 13:03:55;;;;;;;40.78;6.95;;;12.10;99.90;;;;;;6154897;23;20021;-88